Flight Information

DEPARTURE
SANTA MARIA, CA
Elevation:
261
Runways:
2/20 - 5199x75 - ASPH-G
12/30 - 8004x150 - ASPH-G
Active PE Departure:
30
Current PE ATIS:
O
Altimeter:
30.00
Remarks:
ATIS:
121.15 805-347-9136
Ground:
121.9
Tower:
118.3
DESTINATION
,
Elevation:
TPA:
1000 (est.)


6873.7 NM71° True-14° Var57° HDG

Flight Plan:
(click to file on line)

1. Type
2. Aircraft Identification
3. Aircraft Type / Special Equipment
4. True Airspeed
kts
5. Departure Airport
(ICAO code)
6. Arriving Airport
(ICAO code)
7. Cruising Altitude
ft
8. Alternate Airport
(ICAO code)
9. Route of Flight
10. Remarks


00:00:00 Departure ATIS: Destination ATIS:

Clearance Limit:
Route:
Altitude: Expect in minutes
Frequency:
Transponder: (7500 Hijack / 7600 Lost Comms / 7700 Emergency)


KSMX 101551Z 00000KT 8SM FEW200 19/11 A3000 RMK AO2 SLP158 T01940111
Time: 2020-07-10T15:51:00Z
1594398395
Winds: calm
Visibility: 8.0 sm
Clouds (AGL): FEW 20000
Temperature: 19.4 C
Dew Point: 11.1 C
Pressure: 30.0 in Hgbr


Notes:

Data extracted from FAA Digital Chart Supplement. Effective: 0901Z Thursday, May 21, 2020 to 0901Z Thursday, Jul 16, 2020
Current ATIS data is provided courtisy of PilotEdge.